Europa — C6QK8 — position and weather

sailwx.info

Track history (hours):
 
Tides and Currents Weather Stations Pressure Air Temp Water Temp Dewpoint Dewpoint Depression Visibility Wind Speed Wind Dir Waves Ship Positions

Europa

Operator: Hapag-Lloyd Container Line

Last reported at 2018-Jul-22 06:59 UTC. Time now 2018-Jul-22 07:01 UTC.
Position N 61°06' E 006°35'.

Length 199 m; draft 6.2 m.

Type: Passenger vessel. MMSI: 308007000.

Date/timePositionNaut miles runAvg speedWind from/ knotsBaromVisibWave heightAir tempDewpointWater temp
2018-Jul-22 06:59N 61°06' E 006°35'3 7.0
2018-Jul-22 06:30N 61°06' E 006°28'713.4
2018-Jul-22 06:01N 61°07' E 006°15'714.2
2018-Jul-22 05:30N 61°08' E 005°60'814.5
2018-Jul-22 04:59N 61°08' E 005°44'714.4
2018-Jul-22 04:30N 61°05' E 005°31'713.3
2018-Jul-22 04:00N 61°05' E 005°17'714.1
2018-Jul-22 03:31N 61°09' E 005°06'611.8
2018-Jul-22 03:00N 61°13' E 004°57'816.5
2018-Jul-22 02:30N 61°14' E 004°40'714.0
2018-Jul-22 02:00N 61°18' E 004°27'816.4
2018-Jul-22 01:30N 61°27' E 004°27'816.5
2018-Jul-22 01:00N 61°35' E 004°27'816.3
2018-Jul-22 00:30N 61°43' E 004°28'816.5
2018-Jul-22 00:00N 61°51' E 004°34'917.0
2018-Jul-21 23:30N 61°59' E 004°39'817.0
2018-Jul-21 23:00N 62°06' E 004°46'816.8
2018-Jul-21 22:30N 62°12' E 004°59'815.7
2018-Jul-21 22:00N 62°13' E 005°16'510.1
2018-Jul-21 21:30N 62°11' E 005°26'511.2
2018-Jul-21 21:00N 62°11' E 005°38'916.6
2018-Jul-21 20:29N 62°14' E 005°56'817.3
2018-Jul-21 20:00N 62°20' E 006°08'817.1
2018-Jul-21 19:30N 62°24' E 006°24'917.3
2018-Jul-21 19:00N 62°27' E 006°41'715.0
2018-Jul-21 18:30N 62°24' E 006°56'816.6
2018-Jul-21 18:00N 62°16' E 007°01'816.4
2018-Jul-21 17:30N 62°08' E 006°57'4 8.6
2018-Jul-21 17:00N 62°06' E 007°06'2 4.1
2018-Jul-21 16:30N 62°07' E 007°10'1 2.0
2018-Jul-21 16:00N 62°06' E 007°12'0 0.0
2018-Jul-21 15:30N 62°06' E 007°12'0 0.0
2018-Jul-21 15:00N 62°06' E 007°12'0 0.0
2018-Jul-21 14:30N 62°06' E 007°12'0 0.0
2018-Jul-21 14:00N 62°06' E 007°12'0 0.0
2018-Jul-21 13:30N 62°06' E 007°12'0 0.0
2018-Jul-21 13:00N 62°06' E 007°12'0 0.0
2018-Jul-21 12:30N 62°06' E 007°12'0 0.0
2018-Jul-21 12:00N 62°06' E 007°12'0 0.0
2018-Jul-21 11:30N 62°06' E 007°12'0 0.0
2018-Jul-21 11:00N 62°06' E 007°12'0 0.0
2018-Jul-21 10:30N 62°06' E 007°12'0 0.0
2018-Jul-21 10:00N 62°06' E 007°12'0 0.1
2018-Jul-21 09:28N 62°06' E 007°12'2 3.3
2018-Jul-21 09:00N 62°07' E 007°09'4 8.8
2018-Jul-21 08:29N 62°06' E 006°60'3 6.8
2018-Jul-21 07:59N 62°05' E 006°53'0 0.0
2018-Jul-21 07:19N 62°05' E 006°53'0 0.3
2018-Jul-21 06:58N 62°06' E 006°53'3 6.6
2018-Jul-21 06:30N 62°08' E 006°57'612.3
2018-Jul-21 06:00N 62°14' E 007°02'713.5
2018-Jul-21 05:30N 62°20' E 006°56'713.4
2018-Jul-21 05:00N 62°26' E 006°52'713.6
2018-Jul-21 04:30N 62°27' E 006°38'714.3
2018-Jul-21 04:00N 62°24' E 006°23'714.2
2018-Jul-21 03:29N 62°23' E 006°08'612.9
2018-Jul-21 03:00N 62°27' E 005°57'510.3
2018-Jul-21 02:30N 62°29' E 005°47'510.2
2018-Jul-21 02:00N 62°34' E 005°41'510.6
2018-Jul-21 01:30N 62°38' E 005°46'611.2
2018-Jul-21 01:00N 62°43' E 005°53'611.3
2018-Jul-21 00:30N 62°48' E 005°60'611.4
2018-Jul-21 00:00N 62°53' E 006°07'611.5
2018-Jul-20 23:30N 62°57' E 006°14'611.8
2018-Jul-20 23:00N 63°02' E 006°20'611.9
2018-Jul-20 22:30N 63°07' E 006°27'912.5
2018-Jul-20 21:47N 63°15' E 006°38'513.5
2018-Jul-20 21:23N 63°19' E 006°44'513.4
2018-Jul-20 21:00N 63°24' E 006°51'913.9
2018-Jul-20 20:22N 63°31' E 007°02'514.2
2018-Jul-20 20:00N 63°35' E 007°08'814.6
2018-Jul-20 19:27N 63°42' E 007°18'12214.9
2018-Jul-20 11:16N 65°24' E 009°54'416.7
2018-Jul-20 11:00N 65°27' E 009°59'1017.0
2018-Jul-20 10:26N 65°36' E 010°12'717.3
2018-Jul-20 10:00N 65°42' E 010°21'917.3
2018-Jul-20 09:30N 65°49' E 010°33'917.5
2018-Jul-20 09:00N 65°56' E 010°45'917.2
2018-Jul-20 08:30N 66°03' E 010°56'816.8
2018-Jul-20 08:00N 66°11' E 011°08'816.3
2018-Jul-20 07:30N 66°17' E 011°19'816.1
2018-Jul-20 07:00N 66°24' E 011°30'816.6
2018-Jul-20 06:30N 66°31' E 011°41'816.9
2018-Jul-20 06:00N 66°38' E 011°53'917.4
2018-Jul-20 05:30N 66°45' E 012°05'917.6
2018-Jul-20 05:00N 66°53' E 012°18'1017.6
2018-Jul-20 04:27N 67°01' E 012°31'1817.1
2018-Jul-20 03:26N 67°15' E 012°56'717.0
2018-Jul-20 02:59N 67°22' E 013°06'816.9
2018-Jul-20 02:30N 67°28' E 013°20'816.8
2018-Jul-20 02:00N 67°34' E 013°35'916.9
2018-Jul-20 01:30N 67°41' E 013°50'816.7
2018-Jul-20 01:00N 67°47' E 014°05'917.0
2018-Jul-20 00:30N 67°53' E 014°21'817.0
2018-Jul-20 00:00N 67°59' E 014°37'917.0
2018-Jul-19 23:30N 68°04' E 014°55'816.9
2018-Jul-19 23:00N 68°08' E 015°14'917.1
2018-Jul-19 22:29N 68°13' E 015°34'917.0
2018-Jul-19 21:58N 68°19' E 015°51'816.2
2018-Jul-19 21:30N 68°25' E 016°03'713.4
2018-Jul-19 21:00N 68°31' E 016°11'611.4
2018-Jul-19 20:29N 68°33' E 016°26'5 9.6
2018-Jul-19 20:00N 68°37' E 016°34'611.5
2018-Jul-19 19:30N 68°42' E 016°42'815.8
2018-Jul-19 19:00N 68°49' E 016°52'916.8
2018-Jul-19 18:30N 68°56' E 017°05'817.2
2018-Jul-19 18:00N 69°03' E 017°20'816.4
2018-Jul-19 17:30N 69°07' E 017°38'816.6
2018-Jul-19 17:00N 69°11' E 017°60'5 9.5
2018-Jul-19 16:30N 69°15' E 017°58'510.7
2018-Jul-19 16:00N 69°21' E 018°04'613.2
2018-Jul-19 15:30N 69°27' E 018°07'815.5
2018-Jul-19 15:00N 69°31' E 018°25'714.6
2018-Jul-19 14:29N 69°33' E 018°46'7 6.8
2018-Jul-19 13:29N 69°39' E 018°58'0 0.0
2018-Jul-19 12:59N 69°39' E 018°58'0 0.0
2018-Jul-19 12:29N 69°39' E 018°58'0 0.0
2018-Jul-19 11:59N 69°39' E 018°58'0 0.0
2018-Jul-19 11:29N 69°39' E 018°58'0 0.0
2018-Jul-19 10:59N 69°39' E 018°58'0 0.0
2018-Jul-19 10:29N 69°39' E 018°58'0 0.0
2018-Jul-19 09:59N 69°39' E 018°58'0 0.0
2018-Jul-19 09:29N 69°39' E 018°58'0 0.0
2018-Jul-19 08:59N 69°39' E 018°58'0 0.0
2018-Jul-19 08:29N 69°39' E 018°58'0 0.0
2018-Jul-19 07:59N 69°39' E 018°58'0 0.0
2018-Jul-19 07:29N 69°39' E 018°58'0 0.0
2018-Jul-19 06:59N 69°39' E 018°58'0 0.0
2018-Jul-19 06:29N 69°39' E 018°58'0 0.0
2018-Jul-19 05:59N 69°39' E 018°58'0 0.0
2018-Jul-19 05:29N 69°39' E 018°58'0 0.0
2018-Jul-19 04:59N 69°39' E 018°58'0 0.0
2018-Jul-19 04:29N 69°39' E 018°58'0 0.0
2018-Jul-19 03:59N 69°39' E 018°58'0 0.0
2018-Jul-19 03:29N 69°39' E 018°58'0 0.0
2018-Jul-19 02:59N 69°39' E 018°58'0 0.0
2018-Jul-19 02:29N 69°39' E 018°58'0 0.0
2018-Jul-19 01:59N 69°39' E 018°58'0 0.0
2018-Jul-19 01:29N 69°39' E 018°58'0 0.0
2018-Jul-19 00:59N 69°39' E 018°58'0 0.0
2018-Jul-19 00:29N 69°39' E 018°58'0 0.0
2018-Jul-18 23:59N 69°39' E 018°58'0 0.0
2018-Jul-18 23:29N 69°39' E 018°58'0 0.0
2018-Jul-18 22:59N 69°39' E 018°58'0 0.0
2018-Jul-18 22:29N 69°39' E 018°58'0 0.0
2018-Jul-18 21:59N 69°39' E 018°58'0 0.0
2018-Jul-18 21:29N 69°39' E 018°58'0 0.0
2018-Jul-18 20:59N 69°39' E 018°58'0 0.0
2018-Jul-18 20:29N 69°39' E 018°58'0 0.0
2018-Jul-18 20:00N 69°39' E 018°58'0 0.6
2018-Jul-18 19:30N 69°39' E 018°58'3 5.2
2018-Jul-18 18:59N 69°40' E 018°51'511.1
2018-Jul-18 18:30N 69°44' E 019°02'611.6
2018-Jul-18 18:00N 69°47' E 019°16'816.2
2018-Jul-18 17:30N 69°50' E 019°38'917.1
2018-Jul-18 17:00N 69°55' E 019°58'816.9
2018-Jul-18 16:30N 69°60' E 020°18'917.2
2018-Jul-18 16:00N 70°02' E 020°43'816.2
2018-Jul-18 15:30N 70°08' E 021°00'917.2
2018-Jul-18 15:00N 70°15' E 021°13'817.0
2018-Jul-18 14:30N 70°21' E 021°31'1716.9
2018-Jul-18 13:30N 70°28' E 022°17'918.1
2018-Jul-18 13:00N 70°29' E 022°43'917.3
2018-Jul-18 12:31N 70°34' E 023°06'917.8
2018-Jul-18 12:01N 70°39' E 023°28'4 8.6
2018-Jul-18 11:30N 70°40' E 023°40'0 0.0
2018-Jul-18 10:28N 70°40' E 023°40'0 0.0
2018-Jul-18 09:58N 70°40' E 023°40'0 0.0
2018-Jul-18 09:28N 70°40' E 023°40'0 0.0
2018-Jul-18 08:58N 70°40' E 023°40'0 0.0
2018-Jul-18 08:28N 70°40' E 023°40'0 0.0
2018-Jul-18 07:58N 70°40' E 023°40'0 0.0
2018-Jul-18 07:28N 70°40' E 023°40'0 0.0
2018-Jul-18 06:58N 70°40' E 023°40'0 0.0
2018-Jul-18 06:28N 70°40' E 023°40'0 0.0
2018-Jul-18 06:00N 70°40' E 023°40'0 0.3
2018-Jul-18 05:29N 70°40' E 023°41'3 6.6
2018-Jul-18 05:00N 70°42' E 023°32'612.6
2018-Jul-18 04:30N 70°47' E 023°43'714.3
2018-Jul-18 04:00N 70°51' E 023°59'713.3
2018-Jul-18 03:30N 70°56' E 024°14'713.8
2018-Jul-18 03:00N 71°02' E 024°26'714.0
2018-Jul-18 02:29N 71°08' E 024°37'713.8
2018-Jul-18 02:01N 71°14' E 024°47'713.4
2018-Jul-18 01:30N 71°19' E 024°59'713.8
2018-Jul-18 01:00N 71°22' E 025°19'713.8
2018-Jul-18 00:30N 71°17' E 025°34'714.2
2018-Jul-18 00:00N 71°11' E 025°47'5 9.4
2018-Jul-17 23:30N 71°07' E 025°51'0 0.1
2018-Jul-17 23:00N 71°07' E 025°51'0 0.0
2018-Jul-17 22:30N 71°07' E 025°51'0 0.0
2018-Jul-17 22:00N 71°07' E 025°51'0 0.0
2018-Jul-17 21:30N 71°07' E 025°51'0 0.0
2018-Jul-17 21:00N 71°07' E 025°51'0 0.0
2018-Jul-17 20:30N 71°07' E 025°51'0 0.0
2018-Jul-17 20:00N 71°07' E 025°51'0 0.0
2018-Jul-17 19:30N 71°07' E 025°51'0 0.0
2018-Jul-17 19:00N 71°07' E 025°51'0 0.0
2018-Jul-17 18:30N 71°07' E 025°51'0 0.0
2018-Jul-17 18:00N 71°07' E 025°51'0 0.0
2018-Jul-17 17:30N 71°07' E 025°51'0 0.0
2018-Jul-17 17:00N 71°07' E 025°51'0 0.0
2018-Jul-17 16:29N 71°07' E 025°51'0 0.0
2018-Jul-17 16:00N 71°07' E 025°51'3 5.0
2018-Jul-17 15:29N 71°09' E 025°50'2 3.7
2018-Jul-17 15:00N 71°11' E 025°47'5 9.2
2018-Jul-17 14:30N 71°11' E 025°33'510.9
2018-Jul-17 13:59N 71°09' E 025°17'613.1
2018-Jul-17 13:30N 71°05' E 025°00'713.1
2018-Jul-17 13:00N 71°01' E 024°45'612.4
2018-Jul-17 12:30N 71°00' E 024°26'714.0
2018-Jul-17 12:00N 70°55' E 024°11'714.0
2018-Jul-17 11:30N 70°50' E 023°56'714.7
2018-Jul-17 11:00N 70°45' E 023°39'714.0
2018-Jul-17 10:30N 70°40' E 023°25'814.4
2018-Jul-17 09:59N 70°35' E 023°09'714.5
2018-Jul-17 09:30N 70°30' E 022°54'714.7
2018-Jul-17 09:00N 70°28' E 022°33'714.9
2018-Jul-17 08:30N 70°27' E 022°11'814.7
2018-Jul-17 07:59N 70°25' E 021°49'714.5
2018-Jul-17 07:30N 70°21' E 021°32'815.1
2018-Jul-17 07:00N 70°16' E 021°16'815.1
2018-Jul-17 06:30N 70°09' E 021°03'815.2
2018-Jul-17 06:00N 70°03' E 020°51'815.9
2018-Jul-17 05:29N 70°01' E 020°27'715.5
2018-Jul-17 05:00N 69°57' E 020°08'815.8
2018-Jul-17 04:30N 69°52' E 019°52'815.6
2018-Jul-17 04:00N 69°49' E 019°31'815.8
2018-Jul-17 03:30N 69°47' E 019°09'713.2
2018-Jul-17 02:59N 69°42' E 018°55'611.6
2018-Jul-17 02:28N 69°36' E 018°51'714.9
2018-Jul-17 02:00N 69°32' E 018°35'916.8
2018-Jul-17 01:29N 69°29' E 018°11'714.7
2018-Jul-17 01:00N 69°23' E 018°05'611.4
2018-Jul-17 00:30N 69°17' E 017°59'10 9.9
2018-Jul-16 23:30N 69°09' E 017°47'714.2
2018-Jul-16 23:01N 69°06' E 017°28'714.3
2018-Jul-16 22:31N 69°00' E 017°16'714.8
2018-Jul-16 22:00N 68°55' E 017°02'714.7
2018-Jul-16 21:30N 68°49' E 016°51'714.5
2018-Jul-16 21:00N 68°42' E 016°42'713.7
2018-Jul-16 20:29N 68°36' E 016°33'4 8.7
2018-Jul-16 20:00N 68°34' E 016°23'510.8
2018-Jul-16 19:30N 68°31' E 016°10'714.1
2018-Jul-16 19:00N 68°25' E 016°03'714.0
2018-Jul-16 18:30N 68°19' E 015°52'714.3
2018-Jul-16 18:01N 68°14' E 015°39'714.1
2018-Jul-16 17:31N 68°12' E 015°20'714.3
2018-Jul-16 17:01N 68°12' E 015°01'713.5
2018-Jul-16 16:30N 68°19' E 014°58'3 6.3
2018-Jul-16 16:00N 68°22' E 014°57'1 2.6
2018-Jul-16 15:30N 68°21' E 014°59'2 4.0
2018-Jul-16 15:00N 68°19' E 014°58'714.0
2018-Jul-16 14:30N 68°12' E 014°54'714.6
2018-Jul-16 14:00N 68°07' E 014°40'714.1
2018-Jul-16 13:30N 68°05' E 014°21'815.2
2018-Jul-16 13:00N 68°04' E 014°02'916.8
2018-Jul-16 12:29N 68°02' E 013°39'610.7
2018-Jul-16 11:58N 68°08' E 013°34'0 0.1
2018-Jul-16 11:28N 68°08' E 013°34'0 0.0
2018-Jul-16 10:58N 68°08' E 013°34'0 0.0
2018-Jul-16 10:28N 68°08' E 013°34'0 0.0
2018-Jul-16 09:58N 68°08' E 013°34'0 0.0
2018-Jul-16 09:28N 68°08' E 013°34'0 0.0
2018-Jul-16 08:58N 68°08' E 013°34'0 0.0
2018-Jul-16 08:28N 68°08' E 013°34'0 0.0
2018-Jul-16 07:58N 68°08' E 013°34'0 0.0
2018-Jul-16 07:28N 68°08' E 013°34'0 0.0
2018-Jul-16 06:58N 68°08' E 013°34'0 0.0
2018-Jul-16 06:28N 68°08' E 013°34'0 0.0
2018-Jul-16 05:58N 68°08' E 013°34'0 0.0
2018-Jul-16 05:28N 68°08' E 013°34'0 0.0
2018-Jul-16 04:58N 68°08' E 013°34'0 0.0
2018-Jul-16 04:28N 68°08' E 013°34'0 0.0
2018-Jul-16 03:58N 68°08' E 013°34'0 0.0
2018-Jul-16 03:28N 68°08' E 013°34'0 0.0
2018-Jul-16 02:58N 68°08' E 013°34'0 0.0
2018-Jul-16 02:28N 68°08' E 013°34'0 0.0
2018-Jul-16 01:58N 68°08' E 013°34'0 0.0
2018-Jul-16 01:28N 68°08' E 013°34'0 0.0
2018-Jul-16 00:58N 68°08' E 013°34'0 0.0
2018-Jul-16 00:28N 68°08' E 013°34'0 0.0
2018-Jul-15 23:58N 68°08' E 013°34'0 0.0
2018-Jul-15 23:28N 68°08' E 013°34'0 0.0
2018-Jul-15 22:58N 68°08' E 013°34'0 0.0
2018-Jul-15 22:28N 68°08' E 013°34'0 0.0
2018-Jul-15 21:58N 68°08' E 013°34'0 0.0
2018-Jul-15 21:28N 68°08' E 013°34'0 0.0
2018-Jul-15 20:58N 68°08' E 013°34'0 0.0
2018-Jul-15 20:25N 68°08' E 013°34'0 0.0
2018-Jul-15 19:58N 68°08' E 013°34'0 0.0
2018-Jul-15 19:30N 68°08' E 013°34'3 5.1
2018-Jul-15 19:00N 68°05' E 013°36'4 8.9
2018-Jul-15 18:30N 68°02' E 013°44'5 9.9
2018-Jul-15 18:00N 67°59' E 013°55'3 6.7
2018-Jul-15 17:30N 67°58' E 014°03'2 4.4
2018-Jul-15 16:59N 67°58' E 014°09'2 4.2
2018-Jul-15 16:30N 67°58' E 014°14'2 4.2
2018-Jul-15 16:00N 68°00' E 014°17'2 4.1
2018-Jul-15 15:30N 68°02' E 014°20'2 3.9
2018-Jul-15 15:00N 68°04' E 014°22'2 3.8
2018-Jul-15 14:29N 68°06' E 014°24'2 3.7
2018-Jul-15 14:00N 68°07' E 014°27'2 3.7
2018-Jul-15 13:30N 68°09' E 014°30'2 3.2
2018-Jul-15 13:00N 68°10' E 014°32'1 2.6
2018-Jul-15 12:30N 68°11' E 014°33'1 3.0
2018-Jul-15 12:00N 68°13' E 014°35'1 1.1
2018-Jul-15 11:30N 68°13' E 014°34'0 0.4
2018-Jul-15 11:00N 68°13' E 014°34'0 0.4
2018-Jul-15 10:30N 68°13' E 014°34'1 1.1
2018-Jul-15 10:00N 68°13' E 014°34'510.1
2018-Jul-15 09:30N 68°08' E 014°29'714.7
2018-Jul-15 09:00N 68°02' E 014°19'816.2
2018-Jul-15 08:30N 67°55' E 014°07'816.8
2018-Jul-15 08:00N 67°48' E 013°55'917.4
2018-Jul-15 07:30N 67°41' E 013°43'917.2
2018-Jul-15 07:00N 67°33' E 013°31'917.6
2018-Jul-15 06:30N 67°26' E 013°18'917.5
2018-Jul-15 06:00N 67°18' E 013°06'917.0
2018-Jul-15 05:30N 67°11' E 012°54'2016.7
2018-Jul-15 04:20N 66°55' E 012°27'617.4
2018-Jul-15 04:00N 66°50' E 012°20'917.6
2018-Jul-15 03:30N 66°43' E 012°08'917.8
2018-Jul-15 03:00N 66°35' E 011°58'917.2
2018-Jul-15 02:30N 66°26' E 011°54'816.9
2018-Jul-15 02:00N 66°20' E 012°07'917.7
2018-Jul-15 01:30N 66°15' E 012°26'815.5
2018-Jul-15 01:01N 66°10' E 012°39'816.6
2018-Jul-15 00:30N 66°01' E 012°34'917.6
2018-Jul-15 00:00N 65°54' E 012°22'917.6
2018-Jul-14 23:30N 65°45' E 012°18'917.5
2018-Jul-14 22:59N 65°37' E 012°11'817.4
2018-Jul-14 22:31N 65°30' E 011°59'714.2
2018-Jul-14 22:01N 65°23' E 011°58'5 9.9
2018-Jul-14 21:30N 65°18' E 011°59'917.4
2018-Jul-14 21:00N 65°10' E 011°51'917.2
2018-Jul-14 20:30N 65°02' E 011°43'815.4
2018-Jul-14 20:00N 64°57' E 011°29'715.0
2018-Jul-14 19:30N 64°52' E 011°16'611.5
2018-Jul-14 19:01N 64°48' E 011°06'917.4
2018-Jul-14 18:30N 64°42' E 010°52'917.3
2018-Jul-14 18:00N 64°35' E 010°38'816.9
2018-Jul-14 17:30N 64°28' E 010°27'714.1
2018-Jul-14 16:59N 64°21' E 010°26'612.7
2018-Jul-14 16:30N 64°16' E 010°20'713.9
2018-Jul-14 16:00N 64°11' E 010°09'916.8
2018-Jul-14 15:29N 64°05' E 009°54'715.4
2018-Jul-14 15:00N 63°58' E 009°47'816.5
2018-Jul-14 14:30N 63°51' E 009°38'1212.3
2018-Jul-14 13:30N 63°38' E 009°38'713.5
2018-Jul-14 12:58N 63°34' E 009°51'816.7
2018-Jul-14 12:30N 63°28' E 010°03'816.7
2018-Jul-14 12:00N 63°27' E 010°21'1 2.2
2018-Jul-14 11:30N 63°26' E 010°22'0 0.0
2018-Jul-14 10:59N 63°26' E 010°22'0 0.0
2018-Jul-14 10:29N 63°26' E 010°22'0 0.0
2018-Jul-14 09:59N 63°26' E 010°22'0 0.0
2018-Jul-14 09:29N 63°26' E 010°22'0 0.0
2018-Jul-14 08:59N 63°26' E 010°22'0 0.0
2018-Jul-14 08:29N 63°26' E 010°22'0 0.0
2018-Jul-14 07:59N 63°26' E 010°22'0 0.0
2018-Jul-14 07:29N 63°26' E 010°22'0 0.0
2018-Jul-14 06:59N 63°26' E 010°22'0 0.0
2018-Jul-14 06:29N 63°26' E 010°22'0 0.0
2018-Jul-14 06:00N 63°26' E 010°22'0 0.1
2018-Jul-14 05:30N 63°26' E 010°22'3 6.7
2018-Jul-14 05:00N 63°28' E 010°16'612.2
2018-Jul-14 04:30N 63°28' E 010°02'611.3
2018-Jul-14 04:00N 63°32' E 009°52'612.5
2018-Jul-14 03:30N 63°38' E 009°47'5 9.0
2018-Jul-14 02:58N 63°38' E 009°36'612.2
2018-Jul-14 02:30N 63°35' E 009°26'611.9
2018-Jul-14 02:00N 63°32' E 009°14'612.5
2018-Jul-14 01:30N 63°29' E 009°02'712.8
2018-Jul-14 00:59N 63°27' E 008°48'714.4
2018-Jul-14 00:30N 63°24' E 008°33'714.4
2018-Jul-14 00:00N 63°21' E 008°20'714.8
2018-Jul-13 23:30N 63°16' E 008°07'714.4
2018-Jul-13 23:00N 63°13' E 007°52'815.2
2018-Jul-13 22:30N 63°15' E 007°36'510.9
2018-Jul-13 22:00N 63°13' E 007°24'612.5
2018-Jul-13 21:30N 63°10' E 007°12'613.0
2018-Jul-13 21:00N 63°06' E 007°00'713.2
2018-Jul-13 20:30N 63°02' E 006°49'612.5
2018-Jul-13 20:00N 62°56' E 006°50'612.1
2018-Jul-13 19:30N 62°51' E 006°58'612.7
2018-Jul-13 19:00N 62°45' E 006°57'611.7
2018-Jul-13 18:30N 62°41' E 007°06'17 2.5
2018-Jul-13 11:54N 62°34' E 007°40'714.8
2018-Jul-13 11:26N 62°35' E 007°25'818.9
2018-Jul-13 11:01N 62°40' E 007°10'5 8.9
2018-Jul-13 10:30N 62°44' E 007°09'0 0.1
2018-Jul-13 10:00N 62°44' E 007°09'0 0.0
2018-Jul-13 09:30N 62°44' E 007°09'0 0.0
2018-Jul-13 09:00N 62°44' E 007°09'0 0.0
2018-Jul-13 08:30N 62°44' E 007°09'0 0.0
2018-Jul-13 07:57N 62°44' E 007°09'0 0.0
2018-Jul-13 07:30N 62°44' E 007°09'0 0.0
2018-Jul-13 07:00N 62°44' E 007°09'0 0.0
2018-Jul-13 06:30N 62°44' E 007°09'0 0.0
2018-Jul-13 05:59N 62°44' E 007°09'0 0.8
2018-Jul-13 05:30N 62°44' E 007°09'713.4
2018-Jul-13 04:59N 62°41' E 006°55'815.7
2018-Jul-13 04:30N 62°39' E 006°39'816.1
2018-Jul-13 04:00N 62°37' E 006°21'714.0
2018-Jul-13 03:30N 62°38' E 006°07'815.7
2018-Jul-13 03:00N 62°31' E 006°09'611.3
2018-Jul-13 02:31N 62°27' E 005°59'816.6
2018-Jul-13 02:00N 62°27' E 005°41'815.9
2018-Jul-13 01:30N 62°24' E 005°25'816.4
2018-Jul-13 01:00N 62°20' E 005°10'816.6
2018-Jul-13 00:30N 62°13' E 004°59'816.5
2018-Jul-13 00:00N 62°06' E 004°50'816.2
2018-Jul-12 23:30N 61°59' E 004°40'816.2
2018-Jul-12 23:00N 61°52' E 004°33'816.3
2018-Jul-12 22:30N 61°45' E 004°26'816.2
2018-Jul-12 22:00N 61°37' E 004°24'816.4
2018-Jul-12 21:30N 61°28' E 004°25'816.8
2018-Jul-12 21:00N 61°20' E 004°28'714.6
2018-Jul-12 20:30N 61°14' E 004°38'917.2
2018-Jul-12 20:00N 61°13' E 004°56'612.4
2018-Jul-12 19:30N 61°08' E 005°02'712.6
2018-Jul-12 18:58N 61°02' E 004°55'816.8
2018-Jul-12 18:30N 60°57' E 004°42'816.3
2018-Jul-12 17:59N 60°49' E 004°43'817.1
2018-Jul-12 17:30N 60°41' E 004°50'816.9
2018-Jul-12 17:00N 60°33' E 004°56'816.7
2018-Jul-12 16:30N 60°26' E 005°03'612.7
2018-Jul-12 16:00N 60°24' E 005°15'2 4.0
2018-Jul-12 15:30N 60°24' E 005°19'0 0.0
2018-Jul-12 14:58N 60°24' E 005°19'0 0.0
2018-Jul-12 14:28N 60°24' E 005°19'0 0.0
2018-Jul-12 13:58N 60°24' E 005°19'0 0.0
2018-Jul-12 13:28N 60°24' E 005°19'0 0.0
2018-Jul-12 12:58N 60°24' E 005°19'0 0.0
2018-Jul-12 12:28N 60°24' E 005°19'0 0.0
2018-Jul-12 12:00N 60°24' E 005°19'0 0.0
2018-Jul-12 11:29N 60°24' E 005°19'0 0.0
2018-Jul-12 11:00N 60°24' E 005°19'0 0.0
2018-Jul-12 10:30N 60°24' E 005°19'0 0.0
2018-Jul-12 09:58N 60°24' E 005°19'0 0.0
2018-Jul-12 09:30N 60°24' E 005°19'0 0.0
2018-Jul-12 09:00N 60°24' E 005°19'0 0.0
2018-Jul-12 08:30N 60°24' E 005°19'0 0.0
2018-Jul-12 08:00N 60°24' E 005°19'0 0.0
2018-Jul-12 07:30N 60°24' E 005°19'0 0.0
2018-Jul-12 07:00N 60°24' E 005°19'  
Track history (hours):
 
Tides and Currents Weather Stations Pressure Air Temp Water Temp Dewpoint Dewpoint Depression Visibility Wind Speed Wind Dir Waves Ship Positions

Europa

Operator: Hapag-Lloyd Container Line

Last reported at 2018-Jul-22 06:59 UTC. Time now 2018-Jul-22 07:01 UTC.
Position N 61°06' E 006°35'.

Length 199 m; draft 6.2 m.

Type: Passenger vessel. MMSI: 308007000.

Date/timePositionNaut miles runAvg speedWind from/ knotsBaromVisibWave heightAir tempDewpointWater temp
2018-Jul-22 06:59N 61°06' E 006°35'3 7.0
2018-Jul-22 06:30N 61°06' E 006°28'713.4
2018-Jul-22 06:01N 61°07' E 006°15'714.2
2018-Jul-22 05:30N 61°08' E 005°60'814.5
2018-Jul-22 04:59N 61°08' E 005°44'714.4
2018-Jul-22 04:30N 61°05' E 005°31'713.3
2018-Jul-22 04:00N 61°05' E 005°17'714.1
2018-Jul-22 03:31N 61°09' E 005°06'611.8
2018-Jul-22 03:00N 61°13' E 004°57'816.5
2018-Jul-22 02:30N 61°14' E 004°40'714.0
2018-Jul-22 02:00N 61°18' E 004°27'816.4
2018-Jul-22 01:30N 61°27' E 004°27'816.5
2018-Jul-22 01:00N 61°35' E 004°27'816.3
2018-Jul-22 00:30N 61°43' E 004°28'816.5
2018-Jul-22 00:00N 61°51' E 004°34'917.0
2018-Jul-21 23:30N 61°59' E 004°39'817.0
2018-Jul-21 23:00N 62°06' E 004°46'816.8
2018-Jul-21 22:30N 62°12' E 004°59'815.7
2018-Jul-21 22:00N 62°13' E 005°16'510.1
2018-Jul-21 21:30N 62°11' E 005°26'511.2
2018-Jul-21 21:00N 62°11' E 005°38'916.6
2018-Jul-21 20:29N 62°14' E 005°56'817.3
2018-Jul-21 20:00N 62°20' E 006°08'817.1
2018-Jul-21 19:30N 62°24' E 006°24'917.3
2018-Jul-21 19:00N 62°27' E 006°41'715.0
2018-Jul-21 18:30N 62°24' E 006°56'816.6
2018-Jul-21 18:00N 62°16' E 007°01'816.4
2018-Jul-21 17:30N 62°08' E 006°57'4 8.6
2018-Jul-21 17:00N 62°06' E 007°06'2 4.1
2018-Jul-21 16:30N 62°07' E 007°10'1 2.0
2018-Jul-21 16:00N 62°06' E 007°12'0 0.0
2018-Jul-21 15:30N 62°06' E 007°12'0 0.0
2018-Jul-21 15:00N 62°06' E 007°12'0 0.0
2018-Jul-21 14:30N 62°06' E 007°12'0 0.0
2018-Jul-21 14:00N 62°06' E 007°12'0 0.0
2018-Jul-21 13:30N 62°06' E 007°12'0 0.0
2018-Jul-21 13:00N 62°06' E 007°12'0 0.0
2018-Jul-21 12:30N 62°06' E 007°12'0 0.0
2018-Jul-21 12:00N 62°06' E 007°12'0 0.0
2018-Jul-21 11:30N 62°06' E 007°12'0 0.0
2018-Jul-21 11:00N 62°06' E 007°12'0 0.0
2018-Jul-21 10:30N 62°06' E 007°12'0 0.0
2018-Jul-21 10:00N 62°06' E 007°12'0 0.1
2018-Jul-21 09:28N 62°06' E 007°12'2 3.3
2018-Jul-21 09:00N 62°07' E 007°09'4 8.8
2018-Jul-21 08:29N 62°06' E 006°60'3 6.8
2018-Jul-21 07:59N 62°05' E 006°53'0 0.0
2018-Jul-21 07:19N 62°05' E 006°53'0 0.3
2018-Jul-21 06:58N 62°06' E 006°53'3 6.6
2018-Jul-21 06:30N 62°08' E 006°57'612.3
2018-Jul-21 06:00N 62°14' E 007°02'713.5
2018-Jul-21 05:30N 62°20' E 006°56'713.4
2018-Jul-21 05:00N 62°26' E 006°52'713.6
2018-Jul-21 04:30N 62°27' E 006°38'714.3
2018-Jul-21 04:00N 62°24' E 006°23'714.2
2018-Jul-21 03:29N 62°23' E 006°08'612.9
2018-Jul-21 03:00N 62°27' E 005°57'510.3
2018-Jul-21 02:30N 62°29' E 005°47'510.2
2018-Jul-21 02:00N 62°34' E 005°41'510.6
2018-Jul-21 01:30N 62°38' E 005°46'611.2
2018-Jul-21 01:00N 62°43' E 005°53'611.3
2018-Jul-21 00:30N 62°48' E 005°60'611.4
2018-Jul-21 00:00N 62°53' E 006°07'611.5
2018-Jul-20 23:30N 62°57' E 006°14'611.8
2018-Jul-20 23:00N 63°02' E 006°20'611.9
2018-Jul-20 22:30N 63°07' E 006°27'912.5
2018-Jul-20 21:47N 63°15' E 006°38'513.5
2018-Jul-20 21:23N 63°19' E 006°44'513.4
2018-Jul-20 21:00N 63°24' E 006°51'913.9
2018-Jul-20 20:22N 63°31' E 007°02'514.2
2018-Jul-20 20:00N 63°35' E 007°08'814.6
2018-Jul-20 19:27N 63°42' E 007°18'12214.9
2018-Jul-20 11:16N 65°24' E 009°54'416.7
2018-Jul-20 11:00N 65°27' E 009°59'1017.0
2018-Jul-20 10:26N 65°36' E 010°12'717.3
2018-Jul-20 10:00N 65°42' E 010°21'917.3
2018-Jul-20 09:30N 65°49' E 010°33'917.5
2018-Jul-20 09:00N 65°56' E 010°45'917.2
2018-Jul-20 08:30N 66°03' E 010°56'816.8
2018-Jul-20 08:00N 66°11' E 011°08'816.3
2018-Jul-20 07:30N 66°17' E 011°19'816.1
2018-Jul-20 07:00N 66°24' E 011°30'816.6
2018-Jul-20 06:30N 66°31' E 011°41'816.9
2018-Jul-20 06:00N 66°38' E 011°53'917.4
2018-Jul-20 05:30N 66°45' E 012°05'917.6
2018-Jul-20 05:00N 66°53' E 012°18'1017.6
2018-Jul-20 04:27N 67°01' E 012°31'1817.1
2018-Jul-20 03:26N 67°15' E 012°56'717.0
2018-Jul-20 02:59N 67°22' E 013°06'816.9
2018-Jul-20 02:30N 67°28' E 013°20'816.8
2018-Jul-20 02:00N 67°34' E 013°35'916.9
2018-Jul-20 01:30N 67°41' E 013°50'816.7
2018-Jul-20 01:00N 67°47' E 014°05'917.0
2018-Jul-20 00:30N 67°53' E 014°21'817.0
2018-Jul-20 00:00N 67°59' E 014°37'917.0
2018-Jul-19 23:30N 68°04' E 014°55'816.9
2018-Jul-19 23:00N 68°08' E 015°14'917.1
2018-Jul-19 22:29N 68°13' E 015°34'917.0
2018-Jul-19 21:58N 68°19' E 015°51'816.2
2018-Jul-19 21:30N 68°25' E 016°03'713.4
2018-Jul-19 21:00N 68°31' E 016°11'611.4
2018-Jul-19 20:29N 68°33' E 016°26'5 9.6
2018-Jul-19 20:00N 68°37' E 016°34'611.5
2018-Jul-19 19:30N 68°42' E 016°42'815.8
2018-Jul-19 19:00N 68°49' E 016°52'916.8
2018-Jul-19 18:30N 68°56' E 017°05'817.2
2018-Jul-19 18:00N 69°03' E 017°20'816.4
2018-Jul-19 17:30N 69°07' E 017°38'816.6
2018-Jul-19 17:00N 69°11' E 017°60'5 9.5
2018-Jul-19 16:30N 69°15' E 017°58'510.7
2018-Jul-19 16:00N 69°21' E 018°04'613.2
2018-Jul-19 15:30N 69°27' E 018°07'815.5
2018-Jul-19 15:00N 69°31' E 018°25'714.6
2018-Jul-19 14:29N 69°33' E 018°46'7 6.8
2018-Jul-19 13:29N 69°39' E 018°58'0 0.0
2018-Jul-19 12:59N 69°39' E 018°58'0 0.0
2018-Jul-19 12:29N 69°39' E 018°58'0 0.0
2018-Jul-19 11:59N 69°39' E 018°58'0 0.0
2018-Jul-19 11:29N 69°39' E 018°58'0 0.0
2018-Jul-19 10:59N 69°39' E 018°58'0 0.0
2018-Jul-19 10:29N 69°39' E 018°58'0 0.0
2018-Jul-19 09:59N 69°39' E 018°58'0 0.0
2018-Jul-19 09:29N 69°39' E 018°58'0 0.0
2018-Jul-19 08:59N 69°39' E 018°58'0 0.0
2018-Jul-19 08:29N 69°39' E 018°58'0 0.0
2018-Jul-19 07:59N 69°39' E 018°58'0 0.0
2018-Jul-19 07:29N 69°39' E 018°58'0 0.0
2018-Jul-19 06:59N 69°39' E 018°58'0 0.0
2018-Jul-19 06:29N 69°39' E 018°58'0 0.0
2018-Jul-19 05:59N 69°39' E 018°58'0 0.0
2018-Jul-19 05:29N 69°39' E 018°58'0 0.0
2018-Jul-19 04:59N 69°39' E 018°58'0 0.0
2018-Jul-19 04:29N 69°39' E 018°58'0 0.0
2018-Jul-19 03:59N 69°39' E 018°58'0 0.0
2018-Jul-19 03:29N 69°39' E 018°58'0 0.0
2018-Jul-19 02:59N 69°39' E 018°58'0 0.0
2018-Jul-19 02:29N 69°39' E 018°58'0 0.0
2018-Jul-19 01:59N 69°39' E 018°58'0 0.0
2018-Jul-19 01:29N 69°39' E 018°58'0 0.0
2018-Jul-19 00:59N 69°39' E 018°58'0 0.0
2018-Jul-19 00:29N 69°39' E 018°58'0 0.0
2018-Jul-18 23:59N 69°39' E 018°58'0 0.0
2018-Jul-18 23:29N 69°39' E 018°58'0 0.0
2018-Jul-18 22:59N 69°39' E 018°58'0 0.0
2018-Jul-18 22:29N 69°39' E 018°58'0 0.0
2018-Jul-18 21:59N 69°39' E 018°58'0 0.0
2018-Jul-18 21:29N 69°39' E 018°58'0 0.0
2018-Jul-18 20:59N 69°39' E 018°58'0 0.0
2018-Jul-18 20:29N 69°39' E 018°58'0 0.0
2018-Jul-18 20:00N 69°39' E 018°58'0 0.6
2018-Jul-18 19:30N 69°39' E 018°58'3 5.2
2018-Jul-18 18:59N 69°40' E 018°51'511.1
2018-Jul-18 18:30N 69°44' E 019°02'611.6
2018-Jul-18 18:00N 69°47' E 019°16'816.2
2018-Jul-18 17:30N 69°50' E 019°38'917.1
2018-Jul-18 17:00N 69°55' E 019°58'816.9
2018-Jul-18 16:30N 69°60' E 020°18'917.2
2018-Jul-18 16:00N 70°02' E 020°43'816.2
2018-Jul-18 15:30N 70°08' E 021°00'917.2
2018-Jul-18 15:00N 70°15' E 021°13'817.0
2018-Jul-18 14:30N 70°21' E 021°31'1716.9
2018-Jul-18 13:30N 70°28' E 022°17'918.1
2018-Jul-18 13:00N 70°29' E 022°43'917.3
2018-Jul-18 12:31N 70°34' E 023°06'917.8
2018-Jul-18 12:01N 70°39' E 023°28'4 8.6
2018-Jul-18 11:30N 70°40' E 023°40'0 0.0
2018-Jul-18 10:28N 70°40' E 023°40'0 0.0
2018-Jul-18 09:58N 70°40' E 023°40'0 0.0
2018-Jul-18 09:28N 70°40' E 023°40'0 0.0
2018-Jul-18 08:58N 70°40' E 023°40'0 0.0
2018-Jul-18 08:28N 70°40' E 023°40'0 0.0
2018-Jul-18 07:58N 70°40' E 023°40'0 0.0
2018-Jul-18 07:28N 70°40' E 023°40'0 0.0
2018-Jul-18 06:58N 70°40' E 023°40'0 0.0
2018-Jul-18 06:28N 70°40' E 023°40'0 0.0
2018-Jul-18 06:00N 70°40' E 023°40'0 0.3
2018-Jul-18 05:29N 70°40' E 023°41'3 6.6
2018-Jul-18 05:00N 70°42' E 023°32'612.6
2018-Jul-18 04:30N 70°47' E 023°43'714.3
2018-Jul-18 04:00N 70°51' E 023°59'713.3
2018-Jul-18 03:30N 70°56' E 024°14'713.8
2018-Jul-18 03:00N 71°02' E 024°26'714.0
2018-Jul-18 02:29N 71°08' E 024°37'713.8
2018-Jul-18 02:01N 71°14' E 024°47'713.4
2018-Jul-18 01:30N 71°19' E 024°59'713.8
2018-Jul-18 01:00N 71°22' E 025°19'713.8
2018-Jul-18 00:30N 71°17' E 025°34'714.2
2018-Jul-18 00:00N 71°11' E 025°47'5 9.4
2018-Jul-17 23:30N 71°07' E 025°51'0 0.1
2018-Jul-17 23:00N 71°07' E 025°51'0 0.0
2018-Jul-17 22:30N 71°07' E 025°51'0 0.0
2018-Jul-17 22:00N 71°07' E 025°51'0 0.0
2018-Jul-17 21:30N 71°07' E 025°51'0 0.0
2018-Jul-17 21:00N 71°07' E 025°51'0 0.0
2018-Jul-17 20:30N 71°07' E 025°51'0 0.0
2018-Jul-17 20:00N 71°07' E 025°51'0 0.0
2018-Jul-17 19:30N 71°07' E 025°51'0 0.0
2018-Jul-17 19:00N 71°07' E 025°51'0 0.0
2018-Jul-17 18:30N 71°07' E 025°51'0 0.0
2018-Jul-17 18:00N 71°07' E 025°51'0 0.0
2018-Jul-17 17:30N 71°07' E 025°51'0 0.0
2018-Jul-17 17:00N 71°07' E 025°51'0 0.0
2018-Jul-17 16:29N 71°07' E 025°51'0 0.0
2018-Jul-17 16:00N 71°07' E 025°51'3 5.0
2018-Jul-17 15:29N 71°09' E 025°50'2 3.7
2018-Jul-17 15:00N 71°11' E 025°47'5 9.2
2018-Jul-17 14:30N 71°11' E 025°33'510.9
2018-Jul-17 13:59N 71°09' E 025°17'613.1
2018-Jul-17 13:30N 71°05' E 025°00'713.1
2018-Jul-17 13:00N 71°01' E 024°45'612.4
2018-Jul-17 12:30N 71°00' E 024°26'714.0
2018-Jul-17 12:00N 70°55' E 024°11'714.0
2018-Jul-17 11:30N 70°50' E 023°56'714.7
2018-Jul-17 11:00N 70°45' E 023°39'714.0
2018-Jul-17 10:30N 70°40' E 023°25'814.4
2018-Jul-17 09:59N 70°35' E 023°09'714.5
2018-Jul-17 09:30N 70°30' E 022°54'714.7
2018-Jul-17 09:00N 70°28' E 022°33'714.9
2018-Jul-17 08:30N 70°27' E 022°11'814.7
2018-Jul-17 07:59N 70°25' E 021°49'714.5
2018-Jul-17 07:30N 70°21' E 021°32'815.1
2018-Jul-17 07:00N 70°16' E 021°16'815.1
2018-Jul-17 06:30N 70°09' E 021°03'815.2
2018-Jul-17 06:00N 70°03' E 020°51'815.9
2018-Jul-17 05:29N 70°01' E 020°27'715.5
2018-Jul-17 05:00N 69°57' E 020°08'815.8
2018-Jul-17 04:30N 69°52' E 019°52'815.6
2018-Jul-17 04:00N 69°49' E 019°31'815.8
2018-Jul-17 03:30N 69°47' E 019°09'713.2
2018-Jul-17 02:59N 69°42' E 018°55'611.6
2018-Jul-17 02:28N 69°36' E 018°51'714.9
2018-Jul-17 02:00N 69°32' E 018°35'916.8
2018-Jul-17 01:29N 69°29' E 018°11'714.7
2018-Jul-17 01:00N 69°23' E 018°05'611.4
2018-Jul-17 00:30N 69°17' E 017°59'10 9.9
2018-Jul-16 23:30N 69°09' E 017°47'714.2
2018-Jul-16 23:01N 69°06' E 017°28'714.3
2018-Jul-16 22:31N 69°00' E 017°16'714.8
2018-Jul-16 22:00N 68°55' E 017°02'714.7
2018-Jul-16 21:30N 68°49' E 016°51'714.5
2018-Jul-16 21:00N 68°42' E 016°42'713.7
2018-Jul-16 20:29N 68°36' E 016°33'4 8.7
2018-Jul-16 20:00N 68°34' E 016°23'510.8
2018-Jul-16 19:30N 68°31' E 016°10'714.1
2018-Jul-16 19:00N 68°25' E 016°03'714.0
2018-Jul-16 18:30N 68°19' E 015°52'714.3
2018-Jul-16 18:01N 68°14' E 015°39'714.1
2018-Jul-16 17:31N 68°12' E 015°20'714.3
2018-Jul-16 17:01N 68°12' E 015°01'713.5
2018-Jul-16 16:30N 68°19' E 014°58'3 6.3
2018-Jul-16 16:00N 68°22' E 014°57'1 2.6
2018-Jul-16 15:30N 68°21' E 014°59'2 4.0
2018-Jul-16 15:00N 68°19' E 014°58'714.0
2018-Jul-16 14:30N 68°12' E 014°54'714.6
2018-Jul-16 14:00N 68°07' E 014°40'714.1
2018-Jul-16 13:30N 68°05' E 014°21'815.2
2018-Jul-16 13:00N 68°04' E 014°02'916.8
2018-Jul-16 12:29N 68°02' E 013°39'610.7
2018-Jul-16 11:58N 68°08' E 013°34'0 0.1
2018-Jul-16 11:28N 68°08' E 013°34'0 0.0
2018-Jul-16 10:58N 68°08' E 013°34'0 0.0
2018-Jul-16 10:28N 68°08' E 013°34'0 0.0
2018-Jul-16 09:58N 68°08' E 013°34'0 0.0
2018-Jul-16 09:28N 68°08' E 013°34'0 0.0
2018-Jul-16 08:58N 68°08' E 013°34'0 0.0
2018-Jul-16 08:28N 68°08' E 013°34'0 0.0
2018-Jul-16 07:58N 68°08' E 013°34'0 0.0
2018-Jul-16 07:28N 68°08' E 013°34'0 0.0
2018-Jul-16 06:58N 68°08' E 013°34'0 0.0
2018-Jul-16 06:28N 68°08' E 013°34'0 0.0
2018-Jul-16 05:58N 68°08' E 013°34'0 0.0
2018-Jul-16 05:28N 68°08' E 013°34'0 0.0
2018-Jul-16 04:58N 68°08' E 013°34'0 0.0
2018-Jul-16 04:28N 68°08' E 013°34'0 0.0
2018-Jul-16 03:58N 68°08' E 013°34'0 0.0
2018-Jul-16 03:28N 68°08' E 013°34'0 0.0
2018-Jul-16 02:58N 68°08' E 013°34'0 0.0
2018-Jul-16 02:28N 68°08' E 013°34'0 0.0
2018-Jul-16 01:58N 68°08' E 013°34'0 0.0
2018-Jul-16 01:28N 68°08' E 013°34'0 0.0
2018-Jul-16 00:58N 68°08' E 013°34'0 0.0
2018-Jul-16 00:28N 68°08' E 013°34'0 0.0
2018-Jul-15 23:58N 68°08' E 013°34'0 0.0
2018-Jul-15 23:28N 68°08' E 013°34'0 0.0
2018-Jul-15 22:58N 68°08' E 013°34'0 0.0
2018-Jul-15 22:28N 68°08' E 013°34'0 0.0
2018-Jul-15 21:58N 68°08' E 013°34'0 0.0
2018-Jul-15 21:28N 68°08' E 013°34'0 0.0
2018-Jul-15 20:58N 68°08' E 013°34'0 0.0
2018-Jul-15 20:25N 68°08' E 013°34'0 0.0
2018-Jul-15 19:58N 68°08' E 013°34'0 0.0
2018-Jul-15 19:30N 68°08' E 013°34'3 5.1
2018-Jul-15 19:00N 68°05' E 013°36'4 8.9
2018-Jul-15 18:30N 68°02' E 013°44'5 9.9
2018-Jul-15 18:00N 67°59' E 013°55'3 6.7
2018-Jul-15 17:30N 67°58' E 014°03'2 4.4
2018-Jul-15 16:59N 67°58' E 014°09'2 4.2
2018-Jul-15 16:30N 67°58' E 014°14'2 4.2
2018-Jul-15 16:00N 68°00' E 014°17'2 4.1
2018-Jul-15 15:30N 68°02' E 014°20'2 3.9
2018-Jul-15 15:00N 68°04' E 014°22'2 3.8
2018-Jul-15 14:29N 68°06' E 014°24'2 3.7
2018-Jul-15 14:00N 68°07' E 014°27'2 3.7
2018-Jul-15 13:30N 68°09' E 014°30'2 3.2
2018-Jul-15 13:00N 68°10' E 014°32'1 2.6
2018-Jul-15 12:30N 68°11' E 014°33'1 3.0
2018-Jul-15 12:00N 68°13' E 014°35'1 1.1
2018-Jul-15 11:30N 68°13' E 014°34'0 0.4
2018-Jul-15 11:00N 68°13' E 014°34'0 0.4
2018-Jul-15 10:30N 68°13' E 014°34'1 1.1
2018-Jul-15 10:00N 68°13' E 014°34'510.1
2018-Jul-15 09:30N 68°08' E 014°29'714.7
2018-Jul-15 09:00N 68°02' E 014°19'816.2
2018-Jul-15 08:30N 67°55' E 014°07'816.8
2018-Jul-15 08:00N 67°48' E 013°55'917.4
2018-Jul-15 07:30N 67°41' E 013°43'917.2
2018-Jul-15 07:00N 67°33' E 013°31'917.6
2018-Jul-15 06:30N 67°26' E 013°18'917.5
2018-Jul-15 06:00N 67°18' E 013°06'917.0
2018-Jul-15 05:30N 67°11' E 012°54'2016.7
2018-Jul-15 04:20N 66°55' E 012°27'617.4
2018-Jul-15 04:00N 66°50' E 012°20'917.6
2018-Jul-15 03:30N 66°43' E 012°08'917.8
2018-Jul-15 03:00N 66°35' E 011°58'917.2
2018-Jul-15 02:30N 66°26' E 011°54'816.9
2018-Jul-15 02:00N 66°20' E 012°07'917.7
2018-Jul-15 01:30N 66°15' E 012°26'815.5
2018-Jul-15 01:01N 66°10' E 012°39'816.6
2018-Jul-15 00:30N 66°01' E 012°34'917.6
2018-Jul-15 00:00N 65°54' E 012°22'917.6
2018-Jul-14 23:30N 65°45' E 012°18'917.5
2018-Jul-14 22:59N 65°37' E 012°11'817.4
2018-Jul-14 22:31N 65°30' E 011°59'714.2
2018-Jul-14 22:01N 65°23' E 011°58'5 9.9
2018-Jul-14 21:30N 65°18' E 011°59'917.4
2018-Jul-14 21:00N 65°10' E 011°51'917.2
2018-Jul-14 20:30N 65°02' E 011°43'815.4
2018-Jul-14 20:00N 64°57' E 011°29'715.0
2018-Jul-14 19:30N 64°52' E 011°16'611.5
2018-Jul-14 19:01N 64°48' E 011°06'917.4
2018-Jul-14 18:30N 64°42' E 010°52'917.3
2018-Jul-14 18:00N 64°35' E 010°38'816.9
2018-Jul-14 17:30N 64°28' E 010°27'714.1
2018-Jul-14 16:59N 64°21' E 010°26'612.7
2018-Jul-14 16:30N 64°16' E 010°20'713.9
2018-Jul-14 16:00N 64°11' E 010°09'916.8
2018-Jul-14 15:29N 64°05' E 009°54'715.4
2018-Jul-14 15:00N 63°58' E 009°47'816.5
2018-Jul-14 14:30N 63°51' E 009°38'1212.3
2018-Jul-14 13:30N 63°38' E 009°38'713.5
2018-Jul-14 12:58N 63°34' E 009°51'816.7
2018-Jul-14 12:30N 63°28' E 010°03'816.7
2018-Jul-14 12:00N 63°27' E 010°21'1 2.2
2018-Jul-14 11:30N 63°26' E 010°22'0 0.0
2018-Jul-14 10:59N 63°26' E 010°22'0 0.0
2018-Jul-14 10:29N 63°26' E 010°22'0 0.0
2018-Jul-14 09:59N 63°26' E 010°22'0 0.0
2018-Jul-14 09:29N 63°26' E 010°22'0 0.0
2018-Jul-14 08:59N 63°26' E 010°22'0 0.0
2018-Jul-14 08:29N 63°26' E 010°22'0 0.0
2018-Jul-14 07:59N 63°26' E 010°22'0 0.0
2018-Jul-14 07:29N 63°26' E 010°22'0 0.0
2018-Jul-14 06:59N 63°26' E 010°22'0 0.0
2018-Jul-14 06:29N 63°26' E 010°22'0 0.0
2018-Jul-14 06:00N 63°26' E 010°22'0 0.1
2018-Jul-14 05:30N 63°26' E 010°22'3 6.7
2018-Jul-14 05:00N 63°28' E 010°16'612.2
2018-Jul-14 04:30N 63°28' E 010°02'611.3
2018-Jul-14 04:00N 63°32' E 009°52'612.5
2018-Jul-14 03:30N 63°38' E 009°47'5 9.0
2018-Jul-14 02:58N 63°38' E 009°36'612.2
2018-Jul-14 02:30N 63°35' E 009°26'611.9
2018-Jul-14 02:00N 63°32' E 009°14'612.5
2018-Jul-14 01:30N 63°29' E 009°02'712.8
2018-Jul-14 00:59N 63°27' E 008°48'714.4
2018-Jul-14 00:30N 63°24' E 008°33'714.4
2018-Jul-14 00:00N 63°21' E 008°20'714.8
2018-Jul-13 23:30N 63°16' E 008°07'714.4
2018-Jul-13 23:00N 63°13' E 007°52'815.2
2018-Jul-13 22:30N 63°15' E 007°36'510.9
2018-Jul-13 22:00N 63°13' E 007°24'612.5
2018-Jul-13 21:30N 63°10' E 007°12'613.0
2018-Jul-13 21:00N 63°06' E 007°00'713.2
2018-Jul-13 20:30N 63°02' E 006°49'612.5
2018-Jul-13 20:00N 62°56' E 006°50'612.1
2018-Jul-13 19:30N 62°51' E 006°58'612.7
2018-Jul-13 19:00N 62°45' E 006°57'611.7
2018-Jul-13 18:30N 62°41' E 007°06'17 2.5
2018-Jul-13 11:54N 62°34' E 007°40'714.8
2018-Jul-13 11:26N 62°35' E 007°25'818.9
2018-Jul-13 11:01N 62°40' E 007°10'5 8.9
2018-Jul-13 10:30N 62°44' E 007°09'0 0.1
2018-Jul-13 10:00N 62°44' E 007°09'0 0.0
2018-Jul-13 09:30N 62°44' E 007°09'0 0.0
2018-Jul-13 09:00N 62°44' E 007°09'0 0.0
2018-Jul-13 08:30N 62°44' E 007°09'0 0.0
2018-Jul-13 07:57N 62°44' E 007°09'0 0.0
2018-Jul-13 07:30N 62°44' E 007°09'0 0.0
2018-Jul-13 07:00N 62°44' E 007°09'0 0.0
2018-Jul-13 06:30N 62°44' E 007°09'0 0.0
2018-Jul-13 05:59N 62°44' E 007°09'0 0.8
2018-Jul-13 05:30N 62°44' E 007°09'713.4
2018-Jul-13 04:59N 62°41' E 006°55'815.7
2018-Jul-13 04:30N 62°39' E 006°39'816.1
2018-Jul-13 04:00N 62°37' E 006°21'714.0
2018-Jul-13 03:30N 62°38' E 006°07'815.7
2018-Jul-13 03:00N 62°31' E 006°09'611.3
2018-Jul-13 02:31N 62°27' E 005°59'816.6
2018-Jul-13 02:00N 62°27' E 005°41'815.9
2018-Jul-13 01:30N 62°24' E 005°25'816.4
2018-Jul-13 01:00N 62°20' E 005°10'816.6
2018-Jul-13 00:30N 62°13' E 004°59'816.5
2018-Jul-13 00:00N 62°06' E 004°50'816.2
2018-Jul-12 23:30N 61°59' E 004°40'816.2
2018-Jul-12 23:00N 61°52' E 004°33'816.3
2018-Jul-12 22:30N 61°45' E 004°26'816.2
2018-Jul-12 22:00N 61°37' E 004°24'816.4
2018-Jul-12 21:30N 61°28' E 004°25'816.8
2018-Jul-12 21:00N 61°20' E 004°28'714.6
2018-Jul-12 20:30N 61°14' E 004°38'917.2
2018-Jul-12 20:00N 61°13' E 004°56'612.4
2018-Jul-12 19:30N 61°08' E 005°02'712.6
2018-Jul-12 18:58N 61°02' E 004°55'816.8
2018-Jul-12 18:30N 60°57' E 004°42'816.3
2018-Jul-12 17:59N 60°49' E 004°43'817.1
2018-Jul-12 17:30N 60°41' E 004°50'816.9
2018-Jul-12 17:00N 60°33' E 004°56'816.7
2018-Jul-12 16:30N 60°26' E 005°03'612.7
2018-Jul-12 16:00N 60°24' E 005°15'2 4.0
2018-Jul-12 15:30N 60°24' E 005°19'0 0.0
2018-Jul-12 14:58N 60°24' E 005°19'0 0.0
2018-Jul-12 14:28N 60°24' E 005°19'0 0.0
2018-Jul-12 13:58N 60°24' E 005°19'0 0.0
2018-Jul-12 13:28N 60°24' E 005°19'0 0.0
2018-Jul-12 12:58N 60°24' E 005°19'0 0.0
2018-Jul-12 12:28N 60°24' E 005°19'0 0.0
2018-Jul-12 12:00N 60°24' E 005°19'0 0.0
2018-Jul-12 11:29N 60°24' E 005°19'0 0.0
2018-Jul-12 11:00N 60°24' E 005°19'0 0.0
2018-Jul-12 10:30N 60°24' E 005°19'0 0.0
2018-Jul-12 09:58N 60°24' E 005°19'0 0.0
2018-Jul-12 09:30N 60°24' E 005°19'0 0.0
2018-Jul-12 09:00N 60°24' E 005°19'0 0.0
2018-Jul-12 08:30N 60°24' E 005°19'0 0.0
2018-Jul-12 08:00N 60°24' E 005°19'0 0.0
2018-Jul-12 07:30N 60°24' E 005°19'0 0.0
2018-Jul-12 07:00N 60°24' E 005°19'  

Dump ship's entire track history